Time;durP1;ratioP1;P1;durP2;ratioP2;P2;SDS_P1;SDS_P2;PMS_P1;PMS_P2;Temp;Humidity;BMP_temperature;BMP_pressure;BME280_temperature;BME280_humidity;BME280_pressure;Samples;Min_cycle;Max_cycle;Signal;HPM_P1;HPM_P2
2022/12/21 00:01:12;;;;;;;37.17;5.28;;;;;;;-143.29;100.00;62188.47;6132422;23;20029;-94
2022/12/21 00:03:37;;;;;;;15.50;2.78;;;;;;;-143.29;100.00;62188.47;6133423;23;20006;-93
2022/12/21 00:06:04;;;;;;;43.22;4.72;;;;;;;-143.29;100.00;62188.47;6132759;23;20041;-93
2022/12/21 00:08:30;;;;;;;28.35;3.78;;;;;;;-143.29;100.00;62188.47;6131518;23;20376;-95
2022/12/21 00:10:59;;;;;;;26.20;4.20;;;;;;;-143.29;100.00;62188.47;6132075;23;20017;-94
2022/12/21 00:13:25;;;;;;;31.33;3.67;;;;;;;-143.29;100.00;62188.47;6133524;23;20028;-94
2022/12/21 00:16:02;;;;;;;29.90;4.57;;;;;;;-143.29;100.00;62188.47;6133739;23;20009;-94
2022/12/21 00:18:31;;;;;;;28.67;4.13;;;;;;;-143.29;100.00;62188.47;6133927;23;20068;-94
2022/12/21 00:21:17;;;;;;;33.35;3.55;;;;;;;-143.29;100.00;62188.47;6131569;23;20013;-94
2022/12/21 00:23:46;;;;;;;31.63;3.65;;;;;;;-143.29;100.00;62188.47;6131227;23;20380;-94
2022/12/21 00:26:14;;;;;;;19.90;4.07;;;;;;;-143.29;100.00;62188.47;6157865;23;20005;-93
2022/12/21 00:28:39;;;;;;;33.08;3.72;;;;;;;-143.29;100.00;62188.47;6131172;23;20037;-94
2022/12/21 00:31:10;;;;;;;29.50;4.38;;;;;;;-143.29;100.00;62188.47;6131673;23;20006;-93
2022/12/21 00:33:37;;;;;;;30.80;3.95;;;;;;;-143.29;100.00;62188.47;6134539;23;20009;-93
2022/12/21 00:36:04;;;;;;;43.67;3.75;;;;;;;-143.29;100.00;62188.47;6134061;23;20012;-93
2022/12/21 00:38:31;;;;;;;26.27;3.35;;;;;;;-143.29;100.00;62188.47;6134350;23;20025;-93
2022/12/21 00:40:59;;;;;;;34.95;3.22;;;;;;;-143.29;100.00;62188.47;6135289;23;20016;-94
2022/12/21 00:43:25;;;;;;;19.40;3.13;;;;;;;-143.29;100.00;62188.47;6159199;23;20013;-94
2022/12/21 00:45:50;;;;;;;28.52;3.63;;;;;;;-143.29;100.00;62188.47;6133369;23;20025;-93
2022/12/21 00:48:16;;;;;;;20.80;3.35;;;;;;;-143.29;100.00;62188.47;6132396;23;20037;-93
2022/12/21 00:50:41;;;;;;;16.50;3.03;;;;;;;-143.29;100.00;62188.47;6158291;23;20012;-93
2022/12/21 00:53:08;;;;;;;15.38;3.13;;;;;;;-143.29;100.00;62188.47;6131565;23;20005;-93
2022/12/21 00:55:34;;;;;;;15.75;2.65;;;;;;;-143.29;100.00;62188.47;6130620;23;20005;-94
2022/12/21 00:58:00;;;;;;;24.15;5.47;;;;;;;-143.29;100.00;62188.47;6130880;23;20006;-93
2022/12/21 01:00:26;;;;;;;27.05;3.63;;;;;;;-143.29;100.00;62188.47;6132311;23;20037;-93
2022/12/21 01:02:51;;;;;;;34.92;4.25;;;;;;;-143.29;100.00;62188.47;6132667;23;20421;-93
2022/12/21 01:05:17;;;;;;;24.58;3.75;;;;;;;-143.29;100.00;62188.47;6132140;23;20005;-94
2022/12/21 01:07:43;;;;;;;28.90;3.78;;;;;;;-143.29;100.00;62188.47;6129329;23;20036;-94
2022/12/21 01:10:08;;;;;;;15.65;3.03;;;;;;;-143.29;100.00;62188.47;6133410;23;20001;-94
2022/12/21 01:12:34;;;;;;;31.58;3.88;;;;;;;-143.29;100.00;62188.47;6131673;23;20012;-95
2022/12/21 01:15:00;;;;;;;24.50;2.83;;;;;;;-143.29;100.00;62188.47;6133141;23;20005;-93
2022/12/21 01:17:25;;;;;;;17.80;3.03;;;;;;;-143.29;100.00;62188.47;6133652;23;20015;-94
2022/12/21 01:19:51;;;;;;;35.10;3.55;;;;;;;-143.29;100.00;62188.47;6133965;23;20037;-93
2022/12/21 01:22:16;;;;;;;30.85;3.50;;;;;;;-143.29;100.00;62188.47;6132849;23;20013;-95
2022/12/21 01:24:42;;;;;;;20.65;3.17;;;;;;;-143.29;100.00;62188.47;6133722;23;20056;-93
2022/12/21 01:27:07;;;;;;;29.60;4.82;;;;;;;-143.29;100.00;62188.47;6133051;23;20009;-93
2022/12/21 01:29:33;;;;;;;31.90;3.42;;;;;;;-143.29;100.00;62188.47;6132283;23;20392;-93
2022/12/21 01:31:58;;;;;;;27.85;3.00;;;;;;;-143.29;100.00;62188.47;6133691;23;20001;-94
2022/12/21 01:34:24;;;;;;;25.83;4.35;;;;;;;-143.29;100.00;62188.47;6133447;23;20001;-93
2022/12/21 01:36:50;;;;;;;26.70;4.15;;;;;;;-143.29;100.00;62188.47;6132524;23;20002;-94
2022/12/21 01:39:15;;;;;;;37.33;5.22;;;;;;;-143.29;100.00;62188.47;6133668;23;20009;-94
2022/12/21 01:41:41;;;;;;;21.92;2.88;;;;;;;-143.29;100.00;62188.47;6133716;23;20005;-94
2022/12/21 01:44:51;;;;;;;26.42;3.20;;;;;;;-143.29;100.00;62188.47;6133295;23;19998;-94
2022/12/21 01:47:21;;;;;;;27.98;4.07;;;;;;;-143.29;100.00;62188.47;6158903;23;20013;-93
2022/12/21 01:49:54;;;;;;;37.33;4.40;;;;;;;-143.29;100.00;62188.47;6159354;23;20008;-93
2022/12/21 01:52:21;;;;;;;27.23;3.15;;;;;;;-143.29;100.00;62188.47;6133237;23;20025;-93
2022/12/21 01:54:51;;;;;;;26.30;2.85;;;;;;;-143.29;100.00;62188.47;6132596;23;20006;-93
2022/12/21 01:57:17;;;;;;;34.60;5.05;;;;;;;-143.29;100.00;62188.47;6132941;23;20012;-96
2022/12/21 01:59:47;;;;;;;30.60;3.22;;;;;;;-143.29;100.00;62188.47;6133545;23;20092;-93
2022/12/21 02:02:21;;;;;;;29.60;3.28;;;;;;;-143.29;100.00;62188.47;6134351;23;20377;-93
2022/12/21 02:04:46;;;;;;;22.92;2.78;;;;;;;-143.29;100.00;62188.47;6134139;23;20015;-92
2022/12/21 02:07:12;;;;;;;36.67;3.67;;;;;;;-143.29;100.00;62188.47;6134446;23;20009;-93
2022/12/21 02:09:39;;;;;;;22.23;2.58;;;;;;;-143.29;100.00;62188.47;6135564;23;20084;-94
2022/12/21 02:12:07;;;;;;;33.78;3.05;;;;;;;-143.29;100.00;62188.47;6161841;23;20008;-95
2022/12/21 02:14:36;;;;;;;18.25;2.83;;;;;;;-143.29;100.00;62188.47;6136861;23;20016;-96
2022/12/21 02:17:30;;;;;;;32.70;3.70;;;;;;;-143.29;100.00;62188.47;6135714;23;20080;-96
2022/12/21 02:20:17;;;;;;;28.88;3.63;;;;;;;-143.29;100.00;62188.47;6136697;23;20017;-96
2022/12/21 02:23:15;;;;;;;19.33;2.83;;;;;;;-143.29;100.00;62188.47;6136313;23;20006;-96
2022/12/21 02:32:00;;;;;;;23.70;2.17;;;;;;;-143.29;100.00;62188.47;6142152;23;20014;-95
2022/12/21 02:34:38;;;;;;;16.98;1.98;;;;;;;-143.29;100.00;62188.47;6109182;23;20027;-96
2022/12/21 02:49:55;;;;;;;26.10;2.88;;;;;;;-143.29;100.00;62188.47;6163110;23;20048;-96
2022/12/21 03:09:07;;;;;;;14.38;1.50;;;;;;;-143.29;100.00;62188.47;6165608;23;20052;-96
2022/12/21 03:12:01;;;;;;;13.35;1.67;;;;;;;-143.29;100.00;62188.47;6107769;23;20013;-96
2022/12/21 03:14:38;;;;;;;12.80;1.40;;;;;;;-143.29;100.00;62188.47;6134044;23;20016;-96
2022/12/21 03:17:39;;;;;;;17.20;1.60;;;;;;;-143.29;100.00;62188.47;6136662;23;20001;-96
2022/12/21 03:20:10;;;;;;;12.97;1.97;;;;;;;-143.29;100.00;62188.47;6134945;23;20014;-96
2022/12/21 03:23:21;;;;;;;15.70;1.63;;;;;;;-143.29;100.00;62188.47;6135343;23;20033;-96
2022/12/21 03:25:54;;;;;;;19.13;2.00;;;;;;;-143.29;100.00;62188.47;6138727;23;20684;-96
2022/12/21 03:33:44;;;;;;;11.27;1.30;;;;;;;-143.29;100.00;62188.47;6160584;23;20025;-94
2022/12/21 03:36:28;;;;;;;18.13;1.45;;;;;;;-143.29;100.00;62188.47;6132912;23;20002;-94
2022/12/21 03:38:59;;;;;;;15.15;1.50;;;;;;;-143.29;100.00;62188.47;6159687;23;20001;-96
2022/12/21 05:00:11;;;;;;;11.75;1.70;;;;;;;-143.29;100.00;62188.47;6157175;23;20027;-94
2022/12/21 05:02:37;;;;;;;15.68;1.92;;;;;;;-143.29;100.00;62188.47;6130368;23;20017;-94
2022/12/21 05:05:03;;;;;;;21.38;2.30;;;;;;;-143.29;100.00;62188.47;6132268;23;20444;-94
2022/12/21 05:07:28;;;;;;;16.38;1.52;;;;;;;-143.29;100.00;62188.47;6132831;23;20002;-94
2022/12/21 05:09:54;;;;;;;21.05;1.70;;;;;;;-143.29;100.00;62188.47;6132869;23;20425;-93
2022/12/21 05:12:19;;;;;;;15.60;1.77;;;;;;;-143.29;100.00;62188.47;6131329;23;20428;-94
2022/12/21 05:14:44;;;;;;;16.40;1.90;;;;;;;-143.29;100.00;62188.47;6132241;23;20008;-94
2022/12/21 05:17:10;;;;;;;8.52;1.42;;;;;;;-143.29;100.00;62188.47;6133062;23;20429;-94
2022/12/21 05:19:36;;;;;;;14.80;2.17;;;;;;;-143.29;100.00;62188.47;6133503;23;20093;-94
2022/12/21 05:22:01;;;;;;;10.32;1.77;;;;;;;-143.29;100.00;62188.47;6132686;23;20449;-94
2022/12/21 05:24:27;;;;;;;12.00;1.30;;;;;;;-143.29;100.00;62188.47;6157635;23;20005;-94
2022/12/21 05:26:52;;;;;;;18.50;1.48;;;;;;;-143.29;100.00;62188.47;6132204;23;20085;-95
2022/12/21 05:29:17;;;;;;;18.73;1.77;;;;;;;-143.29;100.00;62188.47;6133362;23;20013;-93
2022/12/21 05:31:43;;;;;;;25.63;2.17;;;;;;;-143.29;100.00;62188.47;6133071;23;20029;-93
2022/12/21 05:34:08;;;;;;;20.65;2.40;;;;;;;-143.29;100.00;62188.47;6134399;23;20055;-94
2022/12/21 05:36:34;;;;;;;9.65;2.05;;;;;;;-143.29;100.00;62188.47;6134553;23;20001;-94
2022/12/21 05:39:00;;;;;;;11.73;1.80;;;;;;;-143.29;100.00;62188.47;6133962;23;20032;-94
2022/12/21 05:41:25;;;;;;;10.63;1.50;;;;;;;-143.29;100.00;62188.47;6133911;23;20428;-95
2022/12/21 05:43:51;;;;;;;11.48;1.83;;;;;;;-143.29;100.00;62188.47;6131737;23;20093;-94
2022/12/21 05:46:16;;;;;;;21.75;1.75;;;;;;;-143.29;100.00;62188.47;6131607;23;20360;-93
2022/12/21 05:48:42;;;;;;;12.48;1.40;;;;;;;-143.29;100.00;62188.47;6131614;23;20020;-94
2022/12/21 05:51:10;;;;;;;16.27;1.45;;;;;;;-143.29;100.00;62188.47;6133724;23;20017;-94
2022/12/21 05:53:39;;;;;;;11.25;2.58;;;;;;;-143.29;100.00;62188.47;6133303;23;20006;-94
2022/12/21 05:56:05;;;;;;;13.70;1.33;;;;;;;-143.29;100.00;62188.47;6133200;23;20059;-94
2022/12/21 05:58:30;;;;;;;14.20;1.55;;;;;;;-143.29;100.00;62188.47;6134529;23;20393;-94
2022/12/21 06:00:59;;;;;;;12.45;1.67;;;;;;;-143.29;100.00;62188.47;6134081;23;20017;-95
2022/12/21 06:03:25;;;;;;;9.38;1.15;;;;;;;-143.29;100.00;62188.47;6133448;23;19997;-94
2022/12/21 06:05:50;;;;;;;9.07;1.13;;;;;;;-143.29;100.00;62188.47;6133898;23;20005;-94
2022/12/21 06:08:16;;;;;;;16.58;1.50;;;;;;;-143.29;100.00;62188.47;6134168;23;20006;-94
2022/12/21 06:10:42;;;;;;;8.63;1.10;;;;;;;-143.29;100.00;62188.47;6135121;23;20044;-94
2022/12/21 06:13:07;;;;;;;8.20;1.25;;;;;;;-143.29;100.00;62188.47;6133224;23;20008;-95
2022/12/21 06:15:33;;;;;;;9.80;1.40;;;;;;;-143.29;100.00;62188.47;6132747;23;20005;-94
2022/12/21 06:17:58;;;;;;;9.90;1.65;;;;;;;-143.29;100.00;62188.47;6133272;23;20006;-94
2022/12/21 06:20:24;;;;;;;10.48;1.13;;;;;;;-143.29;100.00;62188.47;6133546;23;20016;-94
2022/12/21 06:22:50;;;;;;;21.38;2.65;;;;;;;-143.29;100.00;62188.47;6133449;23;20006;-95
2022/12/21 06:25:15;;;;;;;13.63;1.45;;;;;;;-143.29;100.00;62188.47;6133055;23;20010;-96
2022/12/21 06:27:41;;;;;;;15.48;1.75;;;;;;;-143.29;100.00;62188.47;6133512;23;20009;-95
2022/12/21 06:30:07;;;;;;;9.15;1.23;;;;;;;-143.29;100.00;62188.47;6133793;23;20013;-95
2022/12/21 06:32:32;;;;;;;6.30;1.10;;;;;;;-143.29;100.00;62188.47;6133261;23;20021;-95
2022/12/21 06:34:58;;;;;;;12.32;1.20;;;;;;;-143.29;100.00;62188.47;6133847;23;20001;-96
2022/12/21 06:37:23;;;;;;;11.80;1.48;;;;;;;-143.29;100.00;62188.47;6133691;23;20009;-95
2022/12/21 06:39:49;;;;;;;12.30;1.55;;;;;;;-143.29;100.00;62188.47;6133507;23;20010;-96
2022/12/21 06:42:14;;;;;;;9.55;1.13;;;;;;;-143.29;100.00;62188.47;6133723;23;20040;-95
2022/12/21 06:44:40;;;;;;;10.10;1.23;;;;;;;-143.29;100.00;62188.47;6133664;23;20001;-95
2022/12/21 06:47:05;;;;;;;8.38;1.20;;;;;;;-143.29;100.00;62188.47;6134799;23;20009;-95
2022/12/21 06:49:31;;;;;;;10.02;1.65;;;;;;;-143.29;100.00;62188.47;6136245;23;20037;-95
2022/12/21 06:51:56;;;;;;;12.07;1.58;;;;;;;-143.29;100.00;62188.47;6136134;23;20001;-96
2022/12/21 06:54:22;;;;;;;12.90;1.38;;;;;;;-143.29;100.00;62188.47;6135812;23;20463;-96
2022/12/21 06:56:47;;;;;;;8.18;1.35;;;;;;;-143.29;100.00;62188.47;6136133;23;20044;-96
2022/12/21 06:59:13;;;;;;;8.48;1.10;;;;;;;-143.29;100.00;62188.47;6135711;23;20017;-96
2022/12/21 07:01:39;;;;;;;16.52;1.73;;;;;;;-143.29;100.00;62188.47;6135639;23;20006;-95
2022/12/21 07:04:04;;;;;;;10.43;1.40;;;;;;;-143.29;100.00;62188.47;6134967;23;20063;-96
2022/12/21 07:06:31;;;;;;;20.65;1.70;;;;;;;-143.29;100.00;62188.47;6135008;23;20340;-95
2022/12/21 07:08:57;;;;;;;8.25;1.35;;;;;;;-143.29;100.00;62188.47;6135578;23;20064;-96
2022/12/21 07:11:26;;;;;;;11.75;1.38;;;;;;;-143.29;100.00;62188.47;6135413;23;20009;-95
2022/12/21 07:13:52;;;;;;;11.43;1.10;;;;;;;-143.29;100.00;62188.47;6135373;23;20002;-95
2022/12/21 07:16:19;;;;;;;9.05;1.27;;;;;;;-143.29;100.00;62188.47;6134849;23;19998;-95
2022/12/21 07:18:45;;;;;;;11.18;1.60;;;;;;;-143.29;100.00;62188.47;6134469;23;20452;-95
2022/12/21 07:21:13;;;;;;;11.73;1.60;;;;;;;-143.29;100.00;62188.47;6134207;23;20085;-94
2022/12/21 07:23:40;;;;;;;11.25;1.15;;;;;;;-143.29;100.00;62188.47;6135585;23;20005;-95
2022/12/21 07:26:14;;;;;;;12.35;1.42;;;;;;;-143.29;100.00;62188.47;6135827;23;20025;-95
2022/12/21 07:28:39;;;;;;;13.18;1.45;;;;;;;-143.29;100.00;62188.47;6134840;23;20010;-96
2022/12/21 07:31:07;;;;;;;13.48;1.45;;;;;;;-143.29;100.00;62188.47;6135011;23;20031;-95
2022/12/21 07:33:34;;;;;;;16.23;1.73;;;;;;;-143.29;100.00;62188.47;6135699;23;20002;-95
2022/12/21 07:36:01;;;;;;;11.75;1.20;;;;;;;-143.29;100.00;62188.47;6136137;23;20001;-96
2022/12/21 07:38:27;;;;;;;13.98;1.83;;;;;;;-143.29;100.00;62188.47;6136176;23;20033;-94
2022/12/21 07:41:04;;;;;;;6.10;1.13;;;;;;;-143.29;100.00;62188.47;6135328;23;20002;-95
2022/12/21 07:43:30;;;;;;;8.68;1.38;;;;;;;-143.29;100.00;62188.47;6135664;23;20005;-95
2022/12/21 07:45:56;;;;;;;13.75;1.30;;;;;;;-143.29;100.00;62188.47;6135359;23;20006;-95
2022/12/21 07:48:21;;;;;;;9.10;1.33;;;;;;;-143.29;100.00;62188.47;6134056;23;20179;-95
2022/12/21 07:50:48;;;;;;;11.13;2.17;;;;;;;-143.29;100.00;62188.47;6131747;23;20052;-96
2022/12/21 07:53:14;;;;;;;9.35;1.60;;;;;;;-143.29;100.00;62188.47;6133153;23;20071;-94
2022/12/21 08:00:50;;;;;;;15.05;1.60;;;;;;;-143.29;100.00;62188.47;6155961;23;20029;-96
2022/12/21 08:11:01;;;;;;;13.32;1.40;;;;;;;-143.29;100.00;62188.47;6156506;23;20025;-96
2022/12/21 08:13:27;;;;;;;12.55;1.00;;;;;;;-143.29;100.00;62188.47;6133618;23;20009;-95
2022/12/21 08:16:04;;;;;;;12.77;2.35;;;;;;;-143.29;100.00;62188.47;6133748;23;20005;-93
2022/12/21 08:18:30;;;;;;;8.05;1.05;;;;;;;-143.29;100.00;62188.47;6133722;23;20004;-94
2022/12/21 08:20:56;;;;;;;11.68;1.02;;;;;;;-143.29;100.00;62188.47;6134376;23;20013;-93
2022/12/21 08:23:22;;;;;;;10.13;1.48;;;;;;;-143.29;100.00;62188.47;6133391;23;20036;-93
2022/12/21 08:25:48;;;;;;;11.63;1.15;;;;;;;-143.29;100.00;62188.47;6156733;23;20524;-93
2022/12/21 08:28:14;;;;;;;9.45;1.00;;;;;;;-143.29;100.00;62188.47;6131216;23;20005;-93
2022/12/21 08:30:41;;;;;;;11.85;1.92;;;;;;;-143.29;100.00;62188.47;6131986;23;20017;-94
2022/12/21 08:33:06;;;;;;;12.63;1.58;;;;;;;-143.29;100.00;62188.47;6134135;23;20064;-93
2022/12/21 08:35:32;;;;;;;17.95;2.75;;;;;;;-143.29;100.00;62188.47;6134278;23;20005;-94
2022/12/21 08:37:58;;;;;;;5.55;0.70;;;;;;;-143.29;100.00;62188.47;6135923;23;20028;-95
2022/12/21 08:40:23;;;;;;;9.00;0.93;;;;;;;-143.29;100.00;62188.47;6134220;23;20068;-94
2022/12/21 08:42:49;;;;;;;10.40;1.20;;;;;;;-143.29;100.00;62188.47;6134109;23;20013;-95
2022/12/21 08:45:14;;;;;;;18.65;1.65;;;;;;;-143.29;100.00;62188.47;6133189;23;20014;-94
2022/12/21 08:47:40;;;;;;;10.60;1.33;;;;;;;-143.29;100.00;62188.47;6133521;23;20005;-93
2022/12/21 08:50:06;;;;;;;17.02;1.13;;;;;;;-143.29;100.00;62188.47;6133781;23;20317;-94
2022/12/21 08:52:32;;;;;;;20.45;1.65;;;;;;;-143.29;100.00;62188.47;6132484;23;20001;-94
2022/12/21 08:54:58;;;;;;;9.23;1.33;;;;;;;-143.29;100.00;62188.47;6131464;23;20009;-95
2022/12/21 08:57:24;;;;;;;10.90;1.33;;;;;;;-143.29;100.00;62188.47;6133408;23;20002;-96
2022/12/21 09:00:25;;;;;;;11.80;1.83;;;;;;;-143.29;100.00;62188.47;6134335;23;20016;-95
2022/12/21 09:03:09;;;;;;;8.48;1.05;;;;;;;-143.29;100.00;62188.47;6135992;23;20001;-96
2022/12/21 15:14:55;;;;;;;6.43;0.75;;;;;;;-143.29;100.00;62188.47;6160553;23;20017;-94
2022/12/21 15:17:27;;;;;;;3.90;0.57;;;;;;;-143.29;100.00;62188.47;6127073;23;20471;-95
2022/12/21 15:21:10;;;;;;;;;;;;;;;;;;;;;
2022/12/21 15:23:39;;;;;;;3.85;0.65;;;;;;;-143.29;100.00;62188.47;6033986;23;20089;-96
2022/12/21 15:26:18;;;;;;;5.03;0.70;;;;;;;-143.29;100.00;62188.47;6092697;23;20003;-96
2022/12/21 15:28:54;;;;;;;4.85;0.80;;;;;;;-143.29;100.00;62188.47;6128124;23;20032;-95
2022/12/21 15:31:34;;;;;;;8.18;0.75;;;;;;;-143.29;100.00;62188.47;6105115;23;20010;-95
2022/12/21 15:34:04;;;;;;;4.45;0.77;;;;;;;-143.29;100.00;62188.47;6128236;23;20409;-96
2022/12/21 15:36:33;;;;;;;2.25;0.60;;;;;;;-143.29;100.00;62188.47;6105656;23;20413;-95
2022/12/21 15:39:13;;;;;;;5.05;0.68;;;;;;;-143.29;100.00;62188.47;6106397;23;20012;-95
2022/12/21 15:42:00;;;;;;;2.88;0.50;;;;;;;-143.29;100.00;62188.47;6104802;23;20025;-96
2022/12/21 15:44:40;;;;;;;3.33;0.63;;;;;;;-143.29;100.00;62188.47;6105736;23;20010;-95
2022/12/21 17:34:14;;;;;;;7.80;0.77;;;;;;;-143.29;100.00;62188.47;6150230;23;20012;-96
2022/12/21 17:36:43;;;;;;;3.38;0.50;;;;;;;-143.29;100.00;62188.47;6107336;23;20014;-96
2022/12/21 17:39:14;;;;;;;5.20;1.35;;;;;;;-143.29;100.00;62188.47;6102224;23;19998;-95
2022/12/21 17:41:41;;;;;;;2.83;0.30;;;;;;;-143.29;100.00;62188.47;6102601;23;20385;-96
2022/12/21 17:44:07;;;;;;;6.45;0.60;;;;;;;-143.29;100.00;62188.47;6103585;23;20002;-96
2022/12/21 17:46:33;;;;;;;2.55;0.40;;;;;;;-143.29;100.00;62188.47;6104279;23;20013;-95
2022/12/21 17:48:59;;;;;;;4.68;1.05;;;;;;;-143.29;100.00;62188.47;6103967;23;20392;-94
2022/12/21 17:51:25;;;;;;;4.15;0.80;;;;;;;-143.29;100.00;62188.47;6106298;23;20519;-94
2022/12/21 17:53:50;;;;;;;3.25;1.02;;;;;;;-143.29;100.00;62188.47;6103178;23;20010;-92
2022/12/21 17:56:18;;;;;;;3.65;1.20;;;;;;;-143.29;100.00;62188.47;6101703;23;20009;-93
2022/12/21 17:58:45;;;;;;;4.90;1.13;;;;;;;-143.29;100.00;62188.47;6127626;23;20025;-94
2022/12/21 18:01:24;;;;;;;5.00;1.30;;;;;;;-143.29;100.00;62188.47;6128831;23;20114;-93
2022/12/21 18:03:50;;;;;;;2.05;1.05;;;;;;;-143.29;100.00;62188.47;6103563;23;20002;-94
2022/12/21 18:06:18;;;;;;;3.35;0.93;;;;;;;-143.29;100.00;62188.47;6099705;23;20014;-94
2022/12/21 18:08:44;;;;;;;6.32;1.00;;;;;;;-143.29;100.00;62188.47;6099114;23;20018;-93
2022/12/21 18:11:19;;;;;;;3.15;1.10;;;;;;;-143.29;100.00;62188.47;6074754;23;20298;-94
2022/12/21 18:13:45;;;;;;;3.63;1.17;;;;;;;-143.29;100.00;62188.47;6074848;23;20013;-93
2022/12/21 18:16:20;;;;;;;3.20;0.98;;;;;;;-143.29;100.00;62188.47;6073808;23;20010;-94
2022/12/21 18:18:46;;;;;;;4.07;0.98;;;;;;;-143.29;100.00;62188.47;6096762;23;20017;-94
2022/12/21 18:21:17;;;;;;;3.47;1.20;;;;;;;-143.29;100.00;62188.47;6098257;23;20014;-95
2022/12/21 18:23:42;;;;;;;3.45;1.05;;;;;;;-143.29;100.00;62188.47;6098784;23;20006;-95
2022/12/21 18:26:21;;;;;;;2.42;0.90;;;;;;;-143.29;100.00;62188.47;6100898;23;20014;-96
2022/12/21 18:28:49;;;;;;;10.40;1.00;;;;;;;-143.29;100.00;62188.47;6073011;23;20030;-96
2022/12/21 18:31:18;;;;;;;6.00;1.00;;;;;;;-143.29;100.00;62188.47;6099335;23;20006;-95
2022/12/21 18:33:55;;;;;;;2.70;0.80;;;;;;;-143.29;100.00;62188.47;6099601;23;20445;-95
2022/12/21 18:36:24;;;;;;;3.40;0.90;;;;;;;-143.29;100.00;62188.47;6097741;23;20011;-95
2022/12/21 18:38:50;;;;;;;2.53;0.80;;;;;;;-143.29;100.00;62188.47;6074211;23;20422;-96
2022/12/21 18:41:19;;;;;;;7.65;1.48;;;;;;;-143.29;100.00;62188.47;6074389;23;20018;-95
2022/12/21 18:43:45;;;;;;;3.53;1.52;;;;;;;-143.29;100.00;62188.47;6100060;23;20085;-94
2022/12/21 18:46:23;;;;;;;4.60;2.00;;;;;;;-143.29;100.00;62188.47;6099265;23;20450;-95
2022/12/21 18:48:49;;;;;;;3.13;1.85;;;;;;;-143.29;100.00;62188.47;6076700;23;20086;-95
2022/12/21 18:51:19;;;;;;;7.20;2.00;;;;;;;-143.29;100.00;62188.47;6102144;23;20010;-96
2022/12/21 18:53:45;;;;;;;5.43;2.22;;;;;;;-143.29;100.00;62188.47;6078260;23;20025;-95
2022/12/21 18:56:11;;;;;;;4.68;1.73;;;;;;;-143.29;100.00;62188.47;6076562;23;20002;-96
2022/12/21 18:58:39;;;;;;;4.93;1.98;;;;;;;-143.29;100.00;62188.47;6113325;23;20024;-95
2022/12/21 19:01:11;;;;;;;4.28;1.70;;;;;;;-143.29;100.00;62188.47;6137220;23;20013;-96
2022/12/21 19:03:37;;;;;;;3.20;1.70;;;;;;;-143.29;100.00;62188.47;6137909;23;20010;-95
2022/12/21 19:06:03;;;;;;;5.32;1.90;;;;;;;-143.29;100.00;62188.47;6133237;23;20404;-95
2022/12/21 19:27:29;;;;;;;4.50;1.40;;;;;;;-143.29;100.00;62188.47;6147295;23;20049;-96
2022/12/21 19:35:04;;;;;;;;;;;;;;;;;;;;;
2022/12/21 20:06:08;;;;;;;8.07;3.90;;;;;;;-143.29;100.00;62188.47;5965343;23;20063;-96
2022/12/21 20:12:01;;;;;;;12.02;2.97;;;;;;;-143.29;100.00;62188.47;6126251;23;20009;-96
2022/12/21 20:15:03;;;;;;;5.68;3.08;;;;;;;-143.29;100.00;62188.47;6115564;23;20002;-96
2022/12/21 20:18:03;;;;;;;;;;;;;;;;;;;;;
2022/12/21 20:21:37;;;;;;;;;;;;;;;;;;;;;
2022/12/21 20:24:32;;;;;;;15.30;7.60;;;;;;;-143.29;100.00;62188.47;6073072;23;20013;-96
2022/12/21 20:27:20;;;;;;;6.97;4.60;;;;;;;-143.29;100.00;62188.47;6102190;23;20017;-95
2022/12/21 20:30:26;;;;;;;;;;;;;;;;;;;;;
2022/12/21 20:33:21;;;;;;;21.05;7.32;;;;;;;-143.29;100.00;62188.47;6135734;23;20028;-96
2022/12/21 20:35:56;;;;;;;13.00;6.68;;;;;;;-143.29;100.00;62188.47;6108155;23;20005;-96
2022/12/21 20:39:07;;;;;;;10.43;6.00;;;;;;;-143.29;100.00;62188.47;6106651;23;20065;-95
2022/12/21 20:44:30;;;;;;;25.27;8.40;;;;;;;-143.29;100.00;62188.47;6135343;23;20308;-95
2022/12/21 20:47:21;;;;;;;;;;;;;;;;;;;;;
2022/12/21 20:50:03;;;;;;;24.13;7.00;;;;;;;-143.29;100.00;62188.47;6135178;23;20041;-96
2022/12/21 20:53:09;;;;;;;18.27;7.93;;;;;;;-143.29;100.00;62188.47;6110116;23;20007;-96
2022/12/21 20:59:04;;;;;;;;;;;;;;;;;;;;;
2022/12/21 21:01:57;;;;;;;15.00;7.85;;;;;;;-143.29;100.00;62188.47;6132215;23;20040;-96
2022/12/21 21:04:29;;;;;;;16.15;8.82;;;;;;;-143.29;100.00;62188.47;6107336;23;20029;-95
2022/12/21 21:07:00;;;;;;;;;;;;;;;-143.29;100.00;62188.47;6106351;23;20006;-96
2022/12/21 21:09:34;;;;;;;16.33;8.10;;;;;;;-143.29;100.00;62188.47;6106695;23;19908;-96
2022/12/21 21:12:12;;;;;;;13.75;8.13;;;;;;;-143.29;100.00;62188.47;6105952;23;20006;-96
2022/12/21 21:14:43;;;;;;;18.17;8.63;;;;;;;-143.29;100.00;62188.47;6106767;23;20006;-96
2022/12/21 21:17:58;;;;;;;20.63;8.45;;;;;;;-143.29;100.00;62188.47;6131537;23;20002;-96
2022/12/21 21:23:28;;;;;;;15.60;6.90;;;;;;;-143.29;100.00;62188.47;6132390;23;20048;-96
2022/12/21 21:26:08;;;;;;;13.23;7.20;;;;;;;-143.29;100.00;62188.47;6107380;23;20025;-96
2022/12/21 21:28:36;;;;;;;14.07;6.25;;;;;;;-143.29;100.00;62188.47;6107333;23;20002;-96
2022/12/21 21:31:09;;;;;;;21.63;7.28;;;;;;;-143.29;100.00;62188.47;6106012;23;20065;-96
2022/12/21 21:33:53;;;;;;;16.77;8.35;;;;;;;-143.29;100.00;62188.47;6107534;23;20116;-96
2022/12/21 21:36:24;;;;;;;21.83;9.63;;;;;;;-143.29;100.00;62188.47;6105316;23;20029;-96
2022/12/21 21:41:49;;;;;;;14.57;6.72;;;;;;;-143.29;100.00;62188.47;6132237;23;19932;-95
2022/12/21 21:44:34;;;;;;;15.68;7.35;;;;;;;-143.29;100.00;62188.47;6107888;23;20018;-95
2022/12/21 21:47:34;;;;;;;16.33;7.47;;;;;;;-143.29;100.00;62188.47;6108185;23;20013;-95
2022/12/21 21:50:23;;;;;;;19.20;7.13;;;;;;;-143.29;100.00;62188.47;6107745;23;20013;-96
2022/12/21 21:53:15;;;;;;;21.08;7.10;;;;;;;-143.29;100.00;62188.47;6107663;23;20273;-96
2022/12/21 21:55:50;;;;;;;21.60;6.95;;;;;;;-143.29;100.00;62188.47;6106373;23;20012;-95
2022/12/21 21:58:30;;;;;;;15.57;6.57;;;;;;;-143.29;100.00;62188.47;6107090;23;20119;-96
2022/12/21 22:01:30;;;;;;;;;;;;;;;;;;;;;
2022/12/21 22:04:01;;;;;;;9.00;5.45;;;;;;;-143.29;100.00;62188.47;6131532;23;20006;-96
2022/12/21 22:07:01;;;;;;;10.88;5.10;;;;;;;-143.29;100.00;62188.47;6109427;23;20013;-96
2022/12/21 22:09:30;;;;;;;12.38;5.70;;;;;;;-143.29;100.00;62188.47;6107877;23;20006;-96
2022/12/21 22:12:11;;;;;;;16.63;5.85;;;;;;;-143.29;100.00;62188.47;6108225;23;20009;-96
2022/12/21 22:15:11;;;;;;;18.63;6.88;;;;;;;-143.29;100.00;62188.47;6132412;23;20005;-96
2022/12/21 22:17:32;;;;;;;21.83;7.03;;;;;;;-143.29;100.00;62188.47;6132966;23;20001;-96
2022/12/21 22:32:44;;;;;;;25.00;7.22;;;;;;;-143.29;100.00;62188.47;6017626;23;20008;-96
2022/12/21 22:44:13;;;;;;;14.80;7.93;;;;;;;-143.29;100.00;62188.47;6136650;23;20028;-96
2022/12/21 22:46:44;;;;;;;22.35;7.95;;;;;;;-143.29;100.00;62188.47;6111250;23;20005;-96
2022/12/21 22:49:37;;;;;;;18.35;7.40;;;;;;;-143.29;100.00;62188.47;6112755;23;20029;-96
2022/12/21 22:52:10;;;;;;;16.55;9.18;;;;;;;-143.29;100.00;62188.47;6110400;23;20006;-96
2022/12/21 22:54:46;;;;;;;13.90;7.95;;;;;;;-143.29;100.00;62188.47;6108640;23;20010;-96
2022/12/21 22:57:20;;;;;;;18.42;8.80;;;;;;;-143.29;100.00;62188.47;6109054;23;20001;-95
2022/12/21 23:03:21;;;;;;;19.10;10.10;;;;;;;-143.29;100.00;62188.47;6162595;23;20021;-96
2022/12/21 23:08:38;;;;;;;17.48;9.32;;;;;;;-143.29;100.00;62188.47;6161986;23;20005;-96
2022/12/21 23:11:23;;;;;;;25.77;10.68;;;;;;;-143.29;100.00;62188.47;6137320;23;20447;-95
2022/12/21 23:16:36;;;;;;;19.83;10.00;;;;;;;-143.29;100.00;62188.47;6161759;23;20012;-95
2022/12/21 23:19:31;;;;;;;16.02;8.43;;;;;;;-143.29;100.00;62188.47;6136955;23;20061;-95
2022/12/21 23:28:04;;;;;;;12.60;7.60;;;;;;;-143.29;100.00;62188.47;6160364;23;20452;-94
2022/12/21 23:45:19;;;;;;;14.43;6.63;;;;;;;-143.29;100.00;62188.47;6161037;23;20089;-96
